createdAt,value
2023-03-22T00:00:48.293Z,99.90
2023-03-22T00:03:20.486Z,99.90
2023-03-22T00:05:57.256Z,99.90
2023-03-22T00:08:28.974Z,99.90
2023-03-22T00:11:00.735Z,99.90
2023-03-22T00:13:35.630Z,99.90
2023-03-22T00:16:08.004Z,99.90
2023-03-22T00:18:40.396Z,99.90
2023-03-22T00:21:14.127Z,99.90
2023-03-22T00:23:46.289Z,99.90
2023-03-22T00:26:18.012Z,99.90
2023-03-22T00:28:49.833Z,99.90
2023-03-22T00:31:21.648Z,99.90
2023-03-22T00:33:53.381Z,99.90
2023-03-22T00:36:25.130Z,99.90
2023-03-22T00:38:57.168Z,99.90
2023-03-22T00:41:28.873Z,99.90
2023-03-22T00:44:00.624Z,99.90
2023-03-22T00:46:32.424Z,99.90
2023-03-22T00:49:04.376Z,99.90
2023-03-22T00:51:36.466Z,99.90
2023-03-22T00:54:08.272Z,99.90
2023-03-22T00:56:40.018Z,99.90
2023-03-22T00:59:17.268Z,99.90
2023-03-22T01:01:49.053Z,99.90
2023-03-22T01:04:26.089Z,99.90
2023-03-22T01:07:03.540Z,99.90
2023-03-22T01:09:35.607Z,99.90
2023-03-22T01:12:07.353Z,99.90
2023-03-22T01:14:39.929Z,99.90
2023-03-22T01:17:12.131Z,99.90
2023-03-22T01:19:43.880Z,99.90
2023-03-22T01:22:15.724Z,99.90
2023-03-22T01:24:49.789Z,99.90
2023-03-22T01:27:21.527Z,99.90
2023-03-22T01:29:53.240Z,99.90
2023-03-22T01:32:25.538Z,99.90
2023-03-22T01:34:57.408Z,99.90
2023-03-22T01:37:32.567Z,99.90
2023-03-22T01:40:05.534Z,99.90
2023-03-22T01:42:38.981Z,99.90
2023-03-22T01:45:14.182Z,99.90
2023-03-22T01:47:52.173Z,99.90
2023-03-22T01:50:25.783Z,99.90
2023-03-22T01:52:58.773Z,99.90
2023-03-22T01:55:35.274Z,99.90
2023-03-22T01:58:30.904Z,99.90
2023-03-22T02:01:07.845Z,99.90
2023-03-22T02:04:03.045Z,99.90
2023-03-22T02:06:40.038Z,99.90
2023-03-22T02:09:18.296Z,99.90
2023-03-22T02:12:06.368Z,99.90
2023-03-22T02:15:22.133Z,99.90
2023-03-22T02:18:38.579Z,99.90
2023-03-22T02:21:35.477Z,99.90
2023-03-22T02:24:19.144Z,99.90
2023-03-22T02:27:22.430Z,99.90
2023-03-22T02:29:59.974Z,99.90
2023-03-22T02:32:50.689Z,99.90
2023-03-22T02:35:43.606Z,99.90
2023-03-22T02:38:46.356Z,99.90
2023-03-22T02:41:18.228Z,99.90
2023-03-22T02:44:01.623Z,99.90
2023-03-22T02:47:01.998Z,99.90
2023-03-22T02:49:49.389Z,99.90
2023-03-22T02:52:43.124Z,99.90
2023-03-22T02:55:41.774Z,99.90
2023-03-22T02:58:25.453Z,99.90
2023-03-22T03:01:03.124Z,99.90
2023-03-22T03:03:37.805Z,99.90
2023-03-22T03:06:18.016Z,99.90
2023-03-22T03:08:51.485Z,99.90
2023-03-22T03:11:23.979Z,99.90
2023-03-22T03:13:56.236Z,99.90
2023-03-22T03:16:30.782Z,99.90
2023-03-22T03:19:20.304Z,99.90
2023-03-22T03:22:22.006Z,99.90
2023-03-22T03:25:02.145Z,99.90
2023-03-22T03:27:49.741Z,99.90
2023-03-22T03:30:30.748Z,99.90
2023-03-22T03:33:09.295Z,99.90
2023-03-22T03:35:53.362Z,99.90
2023-03-22T03:38:29.681Z,99.90
2023-03-22T03:41:09.150Z,99.90
2023-03-22T03:43:42.574Z,99.90
2023-03-22T03:46:14.970Z,99.90
2023-03-22T03:48:49.861Z,99.90
2023-03-22T03:51:21.600Z,99.90
2023-03-22T03:53:53.346Z,99.90
2023-03-22T03:56:26.417Z,99.90
2023-03-22T03:58:59.520Z,99.90
2023-03-22T04:01:31.811Z,99.90
2023-03-22T04:04:18.128Z,99.90
2023-03-22T04:06:58.131Z,99.90
2023-03-22T04:09:36.233Z,99.90
2023-03-22T04:12:32.506Z,99.90
2023-03-22T04:15:22.094Z,99.90
2023-03-22T04:17:58.766Z,99.90
2023-03-22T04:20:33.393Z,99.90
2023-03-22T04:23:05.124Z,99.90
2023-03-22T04:25:37.977Z,99.90
2023-03-22T04:28:14.235Z,99.90
2023-03-22T04:30:52.359Z,99.90
2023-03-22T04:33:56.375Z,99.90
2023-03-22T04:36:39.554Z,99.90
2023-03-22T04:39:33.919Z,99.90
2023-03-22T04:42:35.971Z,99.90
2023-03-22T04:45:29.180Z,99.90
2023-03-22T04:48:07.835Z,99.90
2023-03-22T04:50:41.199Z,99.90
2023-03-22T04:53:13.398Z,99.90
2023-03-22T04:55:46.141Z,99.90
2023-03-22T04:58:22.063Z,99.90
2023-03-22T05:00:54.385Z,99.90
2023-03-22T05:03:27.539Z,99.90
2023-03-22T05:06:01.507Z,99.90
2023-03-22T05:08:43.539Z,99.90
2023-03-22T05:11:17.422Z,99.90
2023-03-22T05:13:58.159Z,99.90
2023-03-22T05:16:31.439Z,99.90
2023-03-22T05:19:03.464Z,99.90
2023-03-22T05:21:36.894Z,99.90
2023-03-22T05:24:11.229Z,99.90
2023-03-22T05:26:44.335Z,99.90
2023-03-22T05:29:17.633Z,99.90
2023-03-22T05:32:06.242Z,99.90
2023-03-22T05:34:38.877Z,99.90
2023-03-22T05:37:22.304Z,99.90
2023-03-22T05:39:59.991Z,99.90
2023-03-22T05:42:40.273Z,99.90
2023-03-22T05:45:21.380Z,99.90
2023-03-22T05:48:00.964Z,99.90
2023-03-22T05:50:34.882Z,99.90
2023-03-22T05:53:07.572Z,99.90
2023-03-22T05:55:52.876Z,99.90
2023-03-22T05:58:25.045Z,99.90
2023-03-22T06:01:01.519Z,99.90
2023-03-22T06:03:49.013Z,99.90
2023-03-22T06:06:34.193Z,99.90
2023-03-22T06:09:17.570Z,99.90
2023-03-22T06:11:53.352Z,99.90
2023-03-22T06:14:25.133Z,99.90
2023-03-22T06:17:12.459Z,99.90
2023-03-22T06:19:45.503Z,99.90
2023-03-22T06:22:19.005Z,99.90
2023-03-22T06:24:51.602Z,99.90
2023-03-22T06:27:33.660Z,99.90
2023-03-22T06:30:06.321Z,99.90
2023-03-22T06:32:46.157Z,99.90
2023-03-22T06:35:18.882Z,99.90
2023-03-22T06:37:51.330Z,99.90
2023-03-22T06:40:23.815Z,99.90
2023-03-22T06:42:55.725Z,99.90
2023-03-22T06:45:27.495Z,99.90
2023-03-22T06:47:59.813Z,99.90
2023-03-22T06:50:47.084Z,99.90
2023-03-22T06:53:39.131Z,99.90
2023-03-22T06:56:11.261Z,99.90
2023-03-22T06:58:54.567Z,99.90
2023-03-22T07:01:26.543Z,99.90
2023-03-22T07:03:58.908Z,99.90
2023-03-22T07:06:32.595Z,99.90
2023-03-22T07:09:04.374Z,99.90
2023-03-22T07:11:39.511Z,99.90
2023-03-22T07:14:11.352Z,99.90
2023-03-22T07:16:56.849Z,99.90
2023-03-22T07:19:29.444Z,99.90
2023-03-22T07:22:02.525Z,99.90
2023-03-22T07:24:36.036Z,99.90
2023-03-22T07:27:08.937Z,99.90
2023-03-22T07:29:41.239Z,99.90
2023-03-22T07:32:13.079Z,99.90
2023-03-22T07:34:59.680Z,99.90
2023-03-22T07:37:31.739Z,99.90
2023-03-22T07:40:04.967Z,99.90
2023-03-22T07:42:37.152Z,99.90
2023-03-22T07:45:26.627Z,99.90
2023-03-22T07:48:18.308Z,99.90
2023-03-22T07:51:22.610Z,99.90
2023-03-22T07:53:54.375Z,99.90
2023-03-22T07:56:26.265Z,99.90
2023-03-22T07:58:58.363Z,99.90
2023-03-22T08:01:30.199Z,99.90
2023-03-22T08:04:22.445Z,99.90
2023-03-22T08:07:02.025Z,99.90
2023-03-22T08:09:33.777Z,99.90
2023-03-22T08:12:07.109Z,99.90
2023-03-22T08:14:40.092Z,99.90
2023-03-22T08:17:19.371Z,99.90
2023-03-22T08:19:52.098Z,99.90
2023-03-22T08:22:29.658Z,99.90
2023-03-22T08:25:24.426Z,99.90
2023-03-22T08:27:57.250Z,99.90
2023-03-22T08:30:31.912Z,99.90
2023-03-22T08:33:04.368Z,99.90
2023-03-22T08:35:37.237Z,99.90
2023-03-22T08:38:09.086Z,99.90
2023-03-22T08:40:49.284Z,99.90
2023-03-22T08:43:25.874Z,99.90
2023-03-22T08:45:58.296Z,99.90
2023-03-22T08:48:30.821Z,99.90
2023-03-22T08:51:13.983Z,99.90
2023-03-22T08:54:00.236Z,99.90
2023-03-22T08:56:50.614Z,99.90
2023-03-22T08:59:42.629Z,99.90
2023-03-22T09:02:40.933Z,99.90
2023-03-22T09:05:13.700Z,99.90
2023-03-22T09:07:46.848Z,99.90
2023-03-22T09:10:30.244Z,99.90
2023-03-22T09:13:02.054Z,99.90
2023-03-22T09:15:34.096Z,99.90
2023-03-22T09:18:22.413Z,99.90
2023-03-22T09:20:54.220Z,99.90
2023-03-22T09:23:32.175Z,99.90
2023-03-22T09:26:07.492Z,99.90
2023-03-22T09:28:40.832Z,99.90
2023-03-22T09:31:14.079Z,99.90
2023-03-22T09:33:46.276Z,99.90
2023-03-22T09:36:18.111Z,99.90
2023-03-22T09:38:50.075Z,99.90
2023-03-22T09:41:50.545Z,99.90
2023-03-22T09:44:29.218Z,99.90
2023-03-22T09:47:04.031Z,99.90
2023-03-22T09:49:53.057Z,99.90
2023-03-22T09:52:25.996Z,99.90
2023-03-22T09:54:59.435Z,99.90
2023-03-22T09:57:37.515Z,99.90
2023-03-22T10:00:22.659Z,99.90
2023-03-22T10:03:06.325Z,99.90
2023-03-22T10:05:53.144Z,97.60
2023-03-22T10:08:59.642Z,98.40
2023-03-22T10:11:39.212Z,98.10
2023-03-22T10:14:11.024Z,97.30
2023-03-22T10:16:44.587Z,98.40
2023-03-22T10:19:31.513Z,97.90
2023-03-22T10:22:05.959Z,97.60
2023-03-22T10:24:41.933Z,97.70
2023-03-22T10:27:19.351Z,97.20
2023-03-22T10:29:56.925Z,97.20
2023-03-22T10:32:51.077Z,97.20
2023-03-22T10:35:29.612Z,97.40
2023-03-22T10:38:05.034Z,97.10
2023-03-22T10:40:40.554Z,96.80
2023-03-22T10:43:18.557Z,97.10
2023-03-22T10:45:53.633Z,97.60
2023-03-22T10:48:28.227Z,96.70
2023-03-22T10:51:01.426Z,96.90
2023-03-22T10:53:43.798Z,96.80
2023-03-22T10:56:20.157Z,97.30
2023-03-22T10:58:52.520Z,96.30
2023-03-22T11:01:33.348Z,96.10
2023-03-22T11:04:14.719Z,96.20
2023-03-22T11:06:56.086Z,96.00
2023-03-22T11:09:28.102Z,94.90
2023-03-22T11:12:01.088Z,95.90
2023-03-22T11:14:36.725Z,95.70
2023-03-22T11:17:22.494Z,95.40
2023-03-22T11:20:09.860Z,94.40
2023-03-22T11:22:44.967Z,94.20
2023-03-22T11:25:29.147Z,94.20
2023-03-22T11:28:03.904Z,93.40
2023-03-22T11:30:36.865Z,93.40
2023-03-22T11:33:08.662Z,93.50
2023-03-22T11:35:45.389Z,93.20
2023-03-22T11:38:45.655Z,93.20
2023-03-22T11:41:25.197Z,92.90
2023-03-22T11:44:06.450Z,93.00
2023-03-22T11:46:38.796Z,92.50
2023-03-22T11:49:16.758Z,92.00
2023-03-22T11:51:49.129Z,92.00
2023-03-22T11:54:30.540Z,91.50
2023-03-22T11:57:09.730Z,91.40
2023-03-22T11:59:56.857Z,91.90
2023-03-22T12:02:33.155Z,92.30
2023-03-22T12:05:27.505Z,91.30
2023-03-22T12:08:36.003Z,91.70
2023-03-22T12:11:27.535Z,91.80
2023-03-22T12:14:20.250Z,91.50
2023-03-22T12:17:20.636Z,91.90
2023-03-22T12:20:07.833Z,91.90
2023-03-22T12:22:45.595Z,91.50
2023-03-22T12:25:21.910Z,90.10
2023-03-22T12:27:57.074Z,90.60
2023-03-22T12:30:33.930Z,90.60
2023-03-22T12:33:39.692Z,90.30
2023-03-22T12:36:17.364Z,90.60
2023-03-22T12:38:56.617Z,90.10
2023-03-22T12:41:32.887Z,90.30
2023-03-22T12:44:33.018Z,90.00
2023-03-22T12:47:12.784Z,89.70
2023-03-22T12:50:09.771Z,88.70
2023-03-22T12:52:46.134Z,89.70
2023-03-22T12:55:33.908Z,90.60
2023-03-22T12:58:07.502Z,91.10
2023-03-22T13:00:53.696Z,90.60
2023-03-22T13:03:38.848Z,90.20
2023-03-22T13:06:31.853Z,90.10
2023-03-22T13:09:34.836Z,89.50
2023-03-22T13:12:18.502Z,90.50
2023-03-22T13:14:50.599Z,88.20
2023-03-22T13:17:25.766Z,87.60
2023-03-22T13:20:13.504Z,87.50
2023-03-22T13:22:48.196Z,87.30
2023-03-22T13:25:19.899Z,86.70
2023-03-22T13:27:54.510Z,85.70
2023-03-22T13:30:47.040Z,86.10
2023-03-22T13:33:24.832Z,88.60
2023-03-22T13:35:59.457Z,88.80
2023-03-22T13:38:35.101Z,87.20
2023-03-22T13:41:22.900Z,81.40
2023-03-22T13:43:57.264Z,82.50
2023-03-22T13:46:44.512Z,81.70
2023-03-22T13:49:44.720Z,81.00
2023-03-22T13:52:26.708Z,80.40
2023-03-22T13:54:58.851Z,80.20
2023-03-22T13:57:47.628Z,80.00
2023-03-22T14:00:31.410Z,81.60
2023-03-22T14:03:31.096Z,82.40
2023-03-22T14:06:09.668Z,81.30
2023-03-22T14:08:44.187Z,80.70
2023-03-22T14:11:25.299Z,81.30
2023-03-22T14:14:06.662Z,81.60
2023-03-22T14:16:51.613Z,82.70
2023-03-22T14:19:29.067Z,81.00
